createdAt,value
2023-12-20T00:00:32.413Z,-2.1
2023-12-20T00:01:32.531Z,-2.1
2023-12-20T00:02:32.416Z,-2.1
2023-12-20T00:03:41.374Z,-2.1
2023-12-20T00:04:32.538Z,-2.1
2023-12-20T00:05:32.476Z,-2.1
2023-12-20T00:06:32.433Z,-2
2023-12-20T00:07:32.515Z,-2
2023-12-20T00:08:32.407Z,-2
2023-12-20T00:09:32.456Z,-2
2023-12-20T00:10:32.431Z,-2
2023-12-20T00:11:32.449Z,-2
2023-12-20T00:12:32.492Z,-2
2023-12-20T00:13:32.393Z,-2
2023-12-20T00:14:32.439Z,-2
2023-12-20T00:15:32.418Z,-2
2023-12-20T00:16:32.410Z,-2
2023-12-20T00:17:32.509Z,-2
2023-12-20T00:18:32.398Z,-2
2023-12-20T00:19:32.504Z,-2
2023-12-20T00:20:32.407Z,-2
2023-12-20T00:21:32.418Z,-2
2023-12-20T00:22:32.459Z,-2
2023-12-20T00:23:32.399Z,-2
2023-12-20T00:24:32.400Z,-2
2023-12-20T00:25:32.418Z,-2
2023-12-20T00:26:32.420Z,-2
2023-12-20T00:27:32.419Z,-2
2023-12-20T00:28:32.510Z,-2
2023-12-20T00:29:32.426Z,-2
2023-12-20T00:30:32.484Z,-2
2023-12-20T00:31:32.449Z,-2
2023-12-20T00:32:32.486Z,-2
2023-12-20T00:33:32.562Z,-2
2023-12-20T00:34:32.455Z,-2
2023-12-20T00:35:32.431Z,-2
2023-12-20T00:36:32.449Z,-2
2023-12-20T00:37:32.424Z,-2
2023-12-20T00:38:32.415Z,-2
2023-12-20T00:39:32.462Z,-2
2023-12-20T00:40:32.418Z,-2
2023-12-20T00:41:32.448Z,-2
2023-12-20T00:42:32.428Z,-2
2023-12-20T00:43:32.425Z,-2
2023-12-20T00:44:32.411Z,-2
2023-12-20T00:45:32.474Z,-2
2023-12-20T00:46:32.411Z,-2
2023-12-20T00:47:32.449Z,-2
2023-12-20T00:48:32.523Z,-2
2023-12-20T00:49:32.459Z,-2
2023-12-20T00:50:32.521Z,-2
2023-12-20T00:51:32.404Z,-2
2023-12-20T00:52:32.440Z,-2
2023-12-20T00:53:32.402Z,-2
2023-12-20T00:54:32.461Z,-2
2023-12-20T00:55:32.499Z,-2
2023-12-20T00:56:32.410Z,-2
2023-12-20T00:57:32.702Z,-2
2023-12-20T00:58:32.474Z,-2
2023-12-20T00:59:32.402Z,-2
2023-12-20T01:00:32.451Z,-2
2023-12-20T01:01:32.533Z,-2
2023-12-20T01:02:32.441Z,-2.4
2023-12-20T01:03:32.582Z,-2.4
2023-12-20T01:04:32.476Z,-2.4
2023-12-20T01:05:32.469Z,-2.4
2023-12-20T01:06:32.476Z,-2.4
2023-12-20T01:07:32.452Z,-2.4
2023-12-20T01:08:32.439Z,-2.4
2023-12-20T01:09:32.437Z,-2.4
2023-12-20T01:10:32.483Z,-2.4
2023-12-20T01:11:32.414Z,-2.4
2023-12-20T01:12:32.425Z,-2.4
2023-12-20T01:13:32.486Z,-2.4
2023-12-20T01:14:32.428Z,-2.4
2023-12-20T01:15:32.421Z,-2.4
2023-12-20T01:16:32.435Z,-2.4
2023-12-20T01:17:32.503Z,-2.4
2023-12-20T01:18:32.431Z,-2.4
2023-12-20T01:19:32.534Z,-2.4
2023-12-20T01:20:32.401Z,-2.4
2023-12-20T01:21:32.470Z,-2.5
2023-12-20T01:22:32.476Z,-2.5
2023-12-20T01:23:32.481Z,-2.5
2023-12-20T01:24:32.432Z,-2.5
2023-12-20T01:25:32.429Z,-2.5
2023-12-20T01:26:32.418Z,-2.5
2023-12-20T01:27:32.478Z,-2.5
2023-12-20T01:28:32.457Z,-2.5
2023-12-20T01:29:32.469Z,-2.5
2023-12-20T01:30:32.508Z,-2.5
2023-12-20T01:31:32.470Z,-2.5
2023-12-20T01:32:32.450Z,-2.5
2023-12-20T01:33:32.453Z,-2.5
2023-12-20T01:34:32.523Z,-2.5
2023-12-20T01:35:32.441Z,-2.5
2023-12-20T01:36:32.430Z,-2.5
2023-12-20T01:37:32.426Z,-2.5
2023-12-20T01:38:32.427Z,-2.5
2023-12-20T01:39:32.430Z,-2.5
2023-12-20T01:40:32.427Z,-2.5
2023-12-20T01:41:32.486Z,-2.5
2023-12-20T01:42:32.435Z,-2.5
2023-12-20T01:43:40.792Z,-2.5
2023-12-20T01:44:32.509Z,-2.5
2023-12-20T01:45:32.506Z,-2.5
2023-12-20T01:46:32.446Z,-2.5
2023-12-20T01:47:32.449Z,-2.5
2023-12-20T01:48:32.414Z,-2.5
2023-12-20T01:49:32.507Z,-2.5
2023-12-20T01:50:32.487Z,-2.5
2023-12-20T01:51:32.435Z,-2.5
2023-12-20T01:52:32.462Z,-2.5
2023-12-20T01:53:32.428Z,-2.5
2023-12-20T01:54:32.431Z,-2.5
2023-12-20T01:55:32.438Z,-2.3
2023-12-20T01:56:32.482Z,-2.3
2023-12-20T01:57:32.435Z,-2.3
2023-12-20T01:58:32.505Z,-2.3
2023-12-20T01:59:32.443Z,-2.1
2023-12-20T02:00:32.413Z,-2.1
2023-12-20T02:01:32.604Z,-2.1
2023-12-20T02:02:32.427Z,-2.1
2023-12-20T02:03:32.465Z,-2.1
2023-12-20T02:04:32.564Z,-2.1
2023-12-20T02:05:32.445Z,-2.1
2023-12-20T02:06:32.504Z,-2.1
2023-12-20T02:07:32.462Z,-2.1
2023-12-20T02:08:32.420Z,-2.1
2023-12-20T02:09:32.423Z,-2.1
2023-12-20T02:10:32.467Z,-2.1
2023-12-20T02:11:32.432Z,-2.1
2023-12-20T02:12:32.433Z,-2.1
2023-12-20T02:13:32.422Z,-2.1
2023-12-20T02:14:32.425Z,-2
2023-12-20T02:15:32.431Z,-2
2023-12-20T02:16:32.490Z,-2
2023-12-20T02:17:32.441Z,-2
2023-12-20T02:18:32.492Z,-2
2023-12-20T02:19:32.487Z,-2
2023-12-20T02:20:32.488Z,-2
2023-12-20T02:21:32.426Z,-2
2023-12-20T02:22:32.424Z,-2
2023-12-20T02:23:32.417Z,-2
2023-12-20T02:24:32.432Z,-2
2023-12-20T02:25:32.413Z,-2
2023-12-20T02:26:32.509Z,-2
2023-12-20T02:27:32.415Z,-2
2023-12-20T02:28:32.474Z,-2.3
2023-12-20T02:29:32.431Z,-2.3
2023-12-20T02:30:32.460Z,-2.3
2023-12-20T02:31:32.485Z,-2.3
2023-12-20T02:32:32.502Z,-2.3
2023-12-20T02:33:32.429Z,-2.3
2023-12-20T02:34:32.514Z,-2.3
2023-12-20T02:35:32.421Z,-2.3
2023-12-20T02:36:32.414Z,-2.3
2023-12-20T02:37:32.417Z,-2.3
2023-12-20T02:38:32.497Z,-2.3
2023-12-20T02:39:32.447Z,-2.3
2023-12-20T02:40:32.442Z,-2.3
2023-12-20T02:41:32.443Z,-2.3
2023-12-20T02:42:32.430Z,-2.3
2023-12-20T02:43:32.420Z,-2.3
2023-12-20T02:44:32.465Z,-2.3
2023-12-20T02:45:32.418Z,-2.7
2023-12-20T02:46:32.439Z,-2.7
2023-12-20T02:47:32.506Z,-2.7
2023-12-20T02:48:32.568Z,-2.7
2023-12-20T02:49:32.564Z,-2.7
2023-12-20T02:50:32.486Z,-2.7
2023-12-20T02:51:32.422Z,-2.7
2023-12-20T02:52:32.447Z,-2.7
2023-12-20T02:53:32.424Z,-2.7
2023-12-20T02:54:32.417Z,-2.5
2023-12-20T02:55:32.426Z,-2.5
2023-12-20T02:56:32.481Z,-2.5
2023-12-20T02:57:32.436Z,-2.5
2023-12-20T02:58:32.549Z,-2.5
2023-12-20T02:59:32.444Z,-2.5
2023-12-20T03:00:32.420Z,-2.5
2023-12-20T03:01:32.609Z,-2.5
2023-12-20T03:02:32.436Z,-2.5
2023-12-20T03:03:32.446Z,-2.5
2023-12-20T03:04:32.525Z,-2.5
2023-12-20T03:05:32.504Z,-2.5
2023-12-20T03:06:32.496Z,-2.5
2023-12-20T03:07:32.439Z,-2.5
2023-12-20T03:08:32.438Z,-2.5
2023-12-20T03:09:42.518Z,-2.5
2023-12-20T03:10:32.483Z,-2.5
2023-12-20T03:11:32.454Z,-2.5
2023-12-20T03:12:32.488Z,-2.5
2023-12-20T03:13:32.477Z,-2.5
2023-12-20T03:14:32.427Z,-2.8
2023-12-20T03:15:32.434Z,-2.8
2023-12-20T03:16:33.698Z,-2.8
2023-12-20T03:17:32.456Z,-2.8
2023-12-20T03:18:32.427Z,-2.8
2023-12-20T03:19:32.539Z,-2.8
2023-12-20T03:20:32.465Z,-2.8
2023-12-20T03:21:32.444Z,-2.8
2023-12-20T03:22:32.443Z,-2.8
2023-12-20T03:23:32.497Z,-2.8
2023-12-20T03:24:32.423Z,-2.8
2023-12-20T03:25:32.509Z,-2.8
2023-12-20T03:26:32.454Z,-2.8
2023-12-20T03:27:32.437Z,-2.8
2023-12-20T03:28:32.502Z,-2.8
2023-12-20T03:29:32.439Z,-3
2023-12-20T03:30:32.487Z,-3
2023-12-20T03:31:32.456Z,-3
2023-12-20T03:32:32.497Z,-3
2023-12-20T03:33:32.490Z,-3
2023-12-20T03:34:32.553Z,-3
2023-12-20T03:35:32.439Z,-3
2023-12-20T03:36:32.487Z,-3
2023-12-20T03:37:32.428Z,-3
2023-12-20T03:38:32.485Z,-3
2023-12-20T03:39:32.438Z,-3
2023-12-20T03:40:32.551Z,-3
2023-12-20T03:41:32.448Z,-3
2023-12-20T03:42:32.469Z,-3
2023-12-20T03:43:32.460Z,-3
2023-12-20T03:44:32.452Z,-3
2023-12-20T03:45:32.471Z,-3.2
2023-12-20T03:46:32.478Z,-3.2
2023-12-20T03:47:32.458Z,-3.2
2023-12-20T03:48:32.524Z,-3.2
2023-12-20T03:49:32.537Z,-3.2
2023-12-20T03:50:32.564Z,-3.2
2023-12-20T03:51:32.437Z,-3.2
2023-12-20T03:52:32.439Z,-3.2
2023-12-20T03:53:32.464Z,-3.4
2023-12-20T03:54:32.437Z,-3.4
2023-12-20T03:55:32.450Z,-3.4
2023-12-20T03:56:32.499Z,-3.4
2023-12-20T03:57:32.431Z,-3.4
2023-12-20T03:58:32.501Z,-3.4
2023-12-20T03:59:32.435Z,-3.4
2023-12-20T04:00:32.490Z,-3.4
2023-12-20T04:01:32.504Z,-3.4
2023-12-20T04:02:32.447Z,-3.4
2023-12-20T04:03:32.437Z,-3.4
2023-12-20T04:04:32.632Z,-3.4
2023-12-20T04:05:32.543Z,-3.4
2023-12-20T04:06:32.529Z,-3.4
2023-12-20T04:07:32.561Z,-3.4
2023-12-20T04:08:32.461Z,-3.4
2023-12-20T04:09:32.465Z,-3.4
2023-12-20T04:10:32.492Z,-3.4
2023-12-20T04:11:32.454Z,-3.4
2023-12-20T04:12:32.519Z,-3.4
2023-12-20T04:13:32.454Z,-3.4
2023-12-20T04:14:32.469Z,-3.4
2023-12-20T04:15:32.442Z,-3.4
2023-12-20T04:16:32.434Z,-3.4
2023-12-20T04:17:32.491Z,-3.4
2023-12-20T04:18:32.547Z,-3.4
2023-12-20T04:19:32.544Z,-3.4
2023-12-20T04:20:32.448Z,-3.4
2023-12-20T04:21:32.460Z,-3.4
2023-12-20T04:22:32.484Z,-3.4
2023-12-20T04:23:32.474Z,-3.4
2023-12-20T04:24:32.492Z,-3.4
2023-12-20T04:25:32.507Z,-3.4
2023-12-20T04:26:32.452Z,-3.4
2023-12-20T04:27:32.461Z,-3.4
2023-12-20T04:28:32.539Z,-3.4
2023-12-20T04:29:32.468Z,-3.4
2023-12-20T04:30:32.497Z,-3.4
2023-12-20T04:31:32.528Z,-3.4
2023-12-20T04:32:32.531Z,-3.4
2023-12-20T04:33:32.459Z,-3.4
2023-12-20T04:34:32.547Z,-3.4
2023-12-20T04:35:32.459Z,-3.4
2023-12-20T04:36:32.480Z,-3.4
2023-12-20T04:37:32.467Z,-3.4
2023-12-20T04:38:32.510Z,-3.4
2023-12-20T04:39:32.449Z,-3.4
2023-12-20T04:40:32.513Z,-3.4
2023-12-20T04:41:32.472Z,-3.4
2023-12-20T04:42:32.461Z,-3.4
2023-12-20T04:43:32.458Z,-3.4
2023-12-20T04:44:32.498Z,-3.5
2023-12-20T04:45:32.508Z,-3.5
2023-12-20T04:46:32.456Z,-3.5
2023-12-20T04:47:32.487Z,-3.5
2023-12-20T04:48:32.573Z,-3.5
2023-12-20T04:49:32.527Z,-3.5
2023-12-20T04:50:32.519Z,-3.5
2023-12-20T04:51:32.471Z,-3.5
2023-12-20T04:52:32.467Z,-3.5
2023-12-20T04:53:32.463Z,-3.5
2023-12-20T04:54:32.477Z,-3.5
2023-12-20T04:55:32.506Z,-3.5
2023-12-20T04:56:32.512Z,-3.5
2023-12-20T04:57:32.472Z,-3.5
2023-12-20T04:58:32.698Z,-3.5
2023-12-20T04:59:32.490Z,-3.5
2023-12-20T05:00:32.615Z,-3.5
2023-12-20T05:01:32.579Z,-3.5
2023-12-20T05:02:32.528Z,-3.5
2023-12-20T05:03:32.465Z,-3.5
2023-12-20T05:04:32.522Z,-3.5
2023-12-20T05:05:32.505Z,-3.5
2023-12-20T05:06:32.483Z,-3.5
2023-12-20T05:07:32.588Z,-3.4
2023-12-20T05:08:32.531Z,-3.4
2023-12-20T05:09:32.475Z,-3.4
2023-12-20T05:10:32.507Z,-3.4
2023-12-20T05:11:32.518Z,-3.4
2023-12-20T05:12:32.518Z,-3.4
2023-12-20T05:13:38.316Z,-3.4
2023-12-20T05:14:32.534Z,-3.4
2023-12-20T05:15:32.498Z,-3.4
2023-12-20T05:16:32.469Z,-3.4
2023-12-20T05:17:32.522Z,-3.4
2023-12-20T05:18:32.472Z,-3.4
2023-12-20T05:19:32.596Z,-3.4
2023-12-20T05:20:32.588Z,-3.4
2023-12-20T05:21:32.461Z,-3.4
2023-12-20T05:22:32.479Z,-3.4
2023-12-20T05:23:32.479Z,-3.4
2023-12-20T05:24:32.510Z,-3.4
2023-12-20T05:25:32.528Z,-3.4
2023-12-20T05:26:32.527Z,-3.4
2023-12-20T05:27:32.474Z,-3.4
2023-12-20T05:28:32.556Z,-3.4
2023-12-20T05:29:32.459Z,-3.4
2023-12-20T05:30:32.641Z,-3.4
2023-12-20T05:31:32.527Z,-3.4
2023-12-20T05:32:32.630Z,-3.4
2023-12-20T05:33:32.556Z,-3.4
2023-12-20T05:34:32.579Z,-3.4
2023-12-20T05:35:32.645Z,-3.4
2023-12-20T05:36:32.526Z,-3.4
2023-12-20T05:37:32.476Z,-3.4
2023-12-20T05:38:32.496Z,-3.4
2023-12-20T05:39:32.469Z,-3.4
2023-12-20T05:40:32.511Z,-3.4
2023-12-20T05:41:32.477Z,-3.4
2023-12-20T05:42:32.489Z,-3.4
2023-12-20T05:43:32.526Z,-3.4
2023-12-20T05:44:32.473Z,-3.6
2023-12-20T05:45:32.485Z,-3.6
2023-12-20T05:46:32.507Z,-3.6
2023-12-20T05:47:32.507Z,-3.6
2023-12-20T05:48:32.541Z,-3.6
2023-12-20T05:49:32.603Z,-3.6
2023-12-20T05:50:32.531Z,-3.6
2023-12-20T05:51:32.483Z,-3.6
2023-12-20T05:52:32.530Z,-3.6
2023-12-20T05:53:32.470Z,-3.6
2023-12-20T05:54:32.533Z,-3.6
2023-12-20T05:55:32.478Z,-3.6
2023-12-20T05:56:32.479Z,-3.6
2023-12-20T05:57:32.483Z,-3.6
2023-12-20T05:58:32.549Z,-3.6
2023-12-20T05:59:32.494Z,-3.6
2023-12-20T06:00:32.530Z,-3.6
2023-12-20T06:01:32.562Z,-3.6
2023-12-20T06:02:32.484Z,-3.6
2023-12-20T06:03:32.482Z,-3.6
2023-12-20T06:04:32.536Z,-3.6
2023-12-20T06:05:32.601Z,-3.6
2023-12-20T06:06:32.496Z,-3.6
2023-12-20T06:07:32.542Z,-3.6
2023-12-20T06:08:32.479Z,-3.6
2023-12-20T06:09:32.567Z,-3.6
2023-12-20T06:10:32.509Z,-3.6
2023-12-20T06:11:32.565Z,-3.6
2023-12-20T06:12:32.505Z,-3.6
2023-12-20T06:13:32.494Z,-3.6
2023-12-20T06:14:32.497Z,-3.6
2023-12-20T06:15:32.526Z,-3.9
2023-12-20T06:16:32.575Z,-3.9
2023-12-20T06:17:32.579Z,-3.9
2023-12-20T06:18:32.580Z,-3.9
2023-12-20T06:19:32.593Z,-3.9
2023-12-20T06:20:32.502Z,-3.9
2023-12-20T06:21:32.550Z,-3.9
2023-12-20T06:22:32.553Z,-3.9
2023-12-20T06:23:32.517Z,-3.9
2023-12-20T06:24:32.501Z,-3.9
2023-12-20T06:25:32.544Z,-3.9
2023-12-20T06:26:32.502Z,-3.9
2023-12-20T06:27:32.518Z,-3.9
2023-12-20T06:28:32.611Z,-3.9
2023-12-20T06:29:32.525Z,-3.9
2023-12-20T06:30:32.558Z,-3.9
2023-12-20T06:31:32.521Z,-3.9
2023-12-20T06:32:32.526Z,-3.9
2023-12-20T06:33:32.506Z,-3.9
2023-12-20T06:34:32.557Z,-3.9
2023-12-20T06:35:35.930Z,-3.9
2023-12-20T06:36:32.519Z,-3.9
2023-12-20T06:37:32.519Z,-3.9
2023-12-20T06:38:32.565Z,-3.9
2023-12-20T06:39:32.574Z,-3.9
2023-12-20T06:40:32.593Z,-3.9
2023-12-20T06:41:32.537Z,-3.8
2023-12-20T06:42:35.238Z,-3.8
2023-12-20T06:43:43.342Z,-3.8
2023-12-20T06:44:32.566Z,-3.8
2023-12-20T06:45:32.537Z,-3.8
2023-12-20T06:46:32.518Z,-3.8
2023-12-20T06:47:32.566Z,-3.8
2023-12-20T06:48:33.685Z,-3.8
2023-12-20T06:49:32.580Z,-3.8
2023-12-20T06:50:32.548Z,-3.8
2023-12-20T06:51:32.580Z,-3.8
2023-12-20T06:52:32.532Z,-3.8
2023-12-20T06:53:32.535Z,-3.8
2023-12-20T06:54:32.570Z,-3.8
2023-12-20T06:55:32.540Z,-3.8
2023-12-20T06:56:32.532Z,-3.8
2023-12-20T06:57:32.523Z,-3.8
2023-12-20T06:58:32.545Z,-3.8
2023-12-20T06:59:32.578Z,-3.8
2023-12-20T07:00:32.574Z,-3.8
2023-12-20T07:01:32.640Z,-3.8
2023-12-20T07:02:32.560Z,-3.7
2023-12-20T07:03:32.554Z,-3.7
2023-12-20T07:04:32.613Z,-3.7
2023-12-20T07:05:32.561Z,-3.7
2023-12-20T07:06:32.582Z,-3.7
2023-12-20T07:07:32.688Z,-3.7
2023-12-20T07:08:32.615Z,-3.7
2023-12-20T07:09:32.613Z,-3.7
2023-12-20T07:10:32.583Z,-3.7
2023-12-20T07:11:32.556Z,-3.7
2023-12-20T07:12:32.557Z,-3.7
2023-12-20T07:13:32.690Z,-3.7
2023-12-20T07:14:32.558Z,-3.7
2023-12-20T07:15:32.596Z,-3.7
2023-12-20T07:16:32.568Z,-3.7
2023-12-20T07:17:32.622Z,-3.7
2023-12-20T07:18:32.596Z,-3.7
2023-12-20T07:19:32.612Z,-3.7
2023-12-20T07:20:32.570Z,-3.7
2023-12-20T07:21:32.610Z,-3.7
2023-12-20T07:22:33.243Z,-3.7
2023-12-20T07:23:32.556Z,-3.7
2023-12-20T07:24:32.631Z,-3.7
2023-12-20T07:25:32.633Z,-3.7
2023-12-20T07:26:32.557Z,-3.7
2023-12-20T07:27:32.545Z,-3.7
2023-12-20T07:28:32.586Z,-3.7
2023-12-20T07:29:32.545Z,-3.7
2023-12-20T07:30:32.608Z,-3.7
2023-12-20T07:31:32.669Z,-3.7
2023-12-20T07:32:32.570Z,-3.7
2023-12-20T07:33:39.108Z,-3.7
2023-12-20T07:34:34.292Z,-3.7
2023-12-20T07:35:32.722Z,-3.7
2023-12-20T07:36:32.567Z,-3.3
2023-12-20T07:37:32.608Z,-3.3
2023-12-20T07:38:32.556Z,-3.3
2023-12-20T07:39:32.601Z,-3.3
2023-12-20T07:40:32.686Z,-3.3
2023-12-20T07:41:32.571Z,-3.3
2023-12-20T07:42:32.573Z,-3.3
2023-12-20T07:43:32.592Z,-3.3
2023-12-20T07:44:32.593Z,-3.3
2023-12-20T07:45:32.606Z,-3.3
2023-12-20T07:46:32.751Z,-3.3
2023-12-20T07:47:32.597Z,-3.1
2023-12-20T07:48:32.639Z,-3.1
2023-12-20T07:49:32.675Z,-3.1
2023-12-20T07:50:32.631Z,-3.1
2023-12-20T07:51:32.651Z,-3.1
2023-12-20T07:52:32.578Z,-3.1
2023-12-20T07:53:32.578Z,-3.1
2023-12-20T07:54:32.633Z,-3.1
2023-12-20T07:55:32.697Z,-3.1
2023-12-20T07:56:32.587Z,-3.1
2023-12-20T07:57:32.596Z,-3.1
2023-12-20T07:58:45.199Z,-3.1
2023-12-20T07:59:33.317Z,-3.1
2023-12-20T08:00:32.592Z,-3.1
2023-12-20T08:01:32.690Z,-3.1
2023-12-20T08:02:32.574Z,-3.1
2023-12-20T08:03:32.632Z,-3.1
2023-12-20T08:04:32.623Z,-3.1
2023-12-20T08:05:32.606Z,-3.1
2023-12-20T08:06:32.607Z,-3.1
2023-12-20T08:07:32.657Z,-3.1
2023-12-20T08:08:32.592Z,-3.1
2023-12-20T08:09:32.653Z,-3.1
2023-12-20T08:10:32.648Z,-3.1
2023-12-20T08:11:32.603Z,-3.1
2023-12-20T08:12:32.610Z,-3.1
2023-12-20T08:13:32.627Z,-3.1
2023-12-20T08:14:32.647Z,-3.1
2023-12-20T08:15:32.596Z,-3.1
2023-12-20T08:16:32.674Z,-3.1
2023-12-20T08:17:32.700Z,-3.1
2023-12-20T08:18:32.644Z,-3.1
2023-12-20T08:19:32.725Z,-3.1
2023-12-20T08:20:40.127Z,-3.1
2023-12-20T08:21:35.499Z,-3.1
2023-12-20T08:22:32.636Z,-3.1
2023-12-20T08:23:33.485Z,-3.1
2023-12-20T08:24:32.603Z,-3.1
2023-12-20T08:25:32.672Z,-3.1
2023-12-20T08:26:32.597Z,-2.6
2023-12-20T08:27:32.596Z,-2.7
2023-12-20T08:28:32.767Z,-2.7
2023-12-20T08:29:32.650Z,-2.7
2023-12-20T08:30:32.712Z,-2.7
2023-12-20T08:31:32.608Z,-2.7
2023-12-20T08:32:32.629Z,-2.7
2023-12-20T08:33:32.745Z,-2.7
2023-12-20T08:34:32.848Z,-2.7
2023-12-20T08:35:32.687Z,-2.7
2023-12-20T08:36:32.598Z,-2.7
2023-12-20T08:37:32.648Z,-2.7
2023-12-20T08:38:32.625Z,-2.7
2023-12-20T08:39:32.635Z,-2.7
2023-12-20T08:40:33.814Z,-2.7
2023-12-20T08:41:32.693Z,-2.7
2023-12-20T08:42:32.623Z,-2.7
2023-12-20T08:43:32.721Z,-2.7
2023-12-20T08:44:32.616Z,-2.7
2023-12-20T08:45:32.637Z,-2.2
2023-12-20T08:46:32.722Z,-2.2
2023-12-20T08:47:32.751Z,-2.2
2023-12-20T08:48:32.698Z,-2.2
2023-12-20T08:49:32.769Z,-2.2
2023-12-20T08:50:32.756Z,-2.2
2023-12-20T08:51:32.621Z,-2.2
2023-12-20T08:52:32.646Z,-2.2
2023-12-20T08:53:32.631Z,-2.2
2023-12-20T08:54:32.651Z,-2.2
2023-12-20T08:55:32.696Z,-2.2
2023-12-20T08:56:32.648Z,-2.2
2023-12-20T08:57:32.668Z,-2.2
2023-12-20T08:58:32.660Z,-2.2
2023-12-20T08:59:32.659Z,-2.2
2023-12-20T09:00:32.675Z,-1.7
2023-12-20T09:01:32.701Z,-1.7
2023-12-20T09:02:32.623Z,-1.7
2023-12-20T09:03:32.635Z,-1.7
2023-12-20T09:04:32.740Z,-1.7
2023-12-20T09:05:32.735Z,-1.7
2023-12-20T09:06:32.668Z,-1.7
2023-12-20T09:07:32.662Z,-1.7
2023-12-20T09:08:32.633Z,-1.7
2023-12-20T09:09:32.638Z,-1.7
2023-12-20T09:10:32.661Z,-1.7
2023-12-20T09:11:32.683Z,-1.7
2023-12-20T09:12:32.633Z,-1.7
2023-12-20T09:13:32.661Z,-1.7
2023-12-20T09:14:32.653Z,-1.7
2023-12-20T09:15:35.902Z,-1.7
2023-12-20T09:16:32.879Z,-1.7
2023-12-20T09:17:32.779Z,-1.7
2023-12-20T09:18:32.769Z,-1.2
2023-12-20T09:19:32.716Z,-1.2
2023-12-20T09:20:32.772Z,-1.2
2023-12-20T09:21:32.694Z,-1.2
2023-12-20T09:22:32.697Z,-1.2
2023-12-20T09:23:32.674Z,-1.2
2023-12-20T09:24:32.646Z,-1.2
2023-12-20T09:25:32.776Z,-1.2
2023-12-20T09:26:32.700Z,-1.2
2023-12-20T09:27:32.656Z,-1.2
2023-12-20T09:28:32.742Z,-1.2
2023-12-20T09:29:32.728Z,-1.2
2023-12-20T09:30:32.751Z,-1.2
2023-12-20T09:31:32.818Z,-1.2
2023-12-20T09:32:32.703Z,-1.2
2023-12-20T09:33:32.772Z,-1.2
2023-12-20T09:34:32.798Z,-0.8
2023-12-20T09:35:32.826Z,-0.8
2023-12-20T09:36:32.760Z,-0.8
2023-12-20T09:37:32.715Z,-0.8
2023-12-20T09:38:32.684Z,-0.8
2023-12-20T09:39:32.718Z,-0.8
2023-12-20T09:40:32.734Z,-0.8
2023-12-20T09:41:32.681Z,-0.8
2023-12-20T09:42:32.695Z,-0.8
2023-12-20T09:43:32.797Z,-0.8
2023-12-20T09:44:32.678Z,-0.8
2023-12-20T09:45:32.716Z,-0.8
2023-12-20T09:46:32.717Z,-0.8
2023-12-20T09:47:32.697Z,-0.8
2023-12-20T09:48:32.732Z,-0.8
2023-12-20T09:49:32.737Z,-0.8
2023-12-20T09:50:32.703Z,-0.8
2023-12-20T09:51:32.681Z,-0.8
2023-12-20T09:52:32.747Z,-0.8
2023-12-20T09:53:32.689Z,-0.2
2023-12-20T09:54:32.755Z,-0.2
2023-12-20T09:55:32.769Z,-0.2
2023-12-20T09:56:32.694Z,-0.2
2023-12-20T09:57:32.683Z,-0.2
2023-12-20T09:58:32.745Z,-0.2
2023-12-20T09:59:32.728Z,-0.2
2023-12-20T10:00:32.703Z,-0.2
2023-12-20T10:01:32.817Z,-0.2
2023-12-20T10:02:32.680Z,-0.2
2023-12-20T10:03:32.690Z,-0.2
2023-12-20T10:04:32.765Z,-0.2
2023-12-20T10:05:33.212Z,0.2
2023-12-20T10:06:32.795Z,0.2
2023-12-20T10:07:32.757Z,0.2
2023-12-20T10:08:32.674Z,0.2
2023-12-20T10:09:32.751Z,0.2
2023-12-20T10:10:38.895Z,0.2
2023-12-20T10:11:32.738Z,0.2
2023-12-20T10:12:32.796Z,0.2
2023-12-20T10:13:32.754Z,0.2
2023-12-20T10:14:32.696Z,0.2
2023-12-20T10:15:32.726Z,0.2
2023-12-20T10:16:32.874Z,0.2
2023-12-20T10:17:32.799Z,0.2
2023-12-20T10:18:38.257Z,0.6
2023-12-20T10:19:32.891Z,0.6
2023-12-20T10:20:32.968Z,0.6
2023-12-20T10:21:32.713Z,0.6
2023-12-20T10:22:32.778Z,0.6
2023-12-20T10:23:32.682Z,0.6
2023-12-20T10:24:32.683Z,0.6
2023-12-20T10:25:33.456Z,0.8
2023-12-20T10:26:32.689Z,0.8
2023-12-20T10:27:32.735Z,0.8
2023-12-20T10:28:32.785Z,0.8
2023-12-20T10:29:34.654Z,0.8
2023-12-20T10:30:32.716Z,0.8
2023-12-20T10:31:32.799Z,0.8
2023-12-20T10:32:32.744Z,0.4
2023-12-20T10:33:32.800Z,0.4
2023-12-20T10:34:32.845Z,0.4
2023-12-20T10:35:32.720Z,0.4
2023-12-20T10:36:32.701Z,0.4
2023-12-20T10:37:32.732Z,0.4
2023-12-20T10:38:32.714Z,0.4
2023-12-20T10:39:32.748Z,0.4
2023-12-20T10:40:32.821Z,0.4
2023-12-20T10:41:32.780Z,0.4
2023-12-20T10:42:32.712Z,0.4
2023-12-20T10:43:32.866Z,-0.1
2023-12-20T10:44:32.713Z,-0.1
2023-12-20T10:45:32.725Z,-0.1
2023-12-20T10:46:32.777Z,-0.1
2023-12-20T10:47:32.733Z,-0.1
2023-12-20T10:48:32.768Z,-0.1
2023-12-20T10:49:32.817Z,-0.1
2023-12-20T10:50:32.805Z,-0.1
2023-12-20T10:51:32.745Z,-0.1
2023-12-20T10:52:32.766Z,-0.1
2023-12-20T10:53:32.711Z,-0.1
2023-12-20T10:54:32.746Z,-0.1
2023-12-20T10:55:32.867Z,-0.1
2023-12-20T10:56:32.704Z,-0.1
2023-12-20T10:57:32.702Z,-0.1
2023-12-20T10:58:32.771Z,-0.1
2023-12-20T10:59:32.762Z,-0.1
2023-12-20T11:00:32.786Z,-0.1
2023-12-20T11:01:32.868Z,-0.1
2023-12-20T11:02:32.734Z,-0.1
2023-12-20T11:03:32.749Z,-0.1
2023-12-20T11:04:32.815Z,-0.1
2023-12-20T11:05:32.727Z,-0.1
2023-12-20T11:06:32.786Z,-0.7
2023-12-20T11:07:32.787Z,-0.7
2023-12-20T11:08:32.739Z,-0.7
2023-12-20T11:09:32.811Z,-0.7
2023-12-20T11:10:32.994Z,-0.7
2023-12-20T11:11:32.738Z,-0.7
2023-12-20T11:12:32.725Z,-0.7
2023-12-20T11:13:32.861Z,-0.7
2023-12-20T11:14:32.735Z,-0.7
2023-12-20T11:15:32.764Z,-0.7
2023-12-20T11:16:41.296Z,-0.7
2023-12-20T11:17:32.760Z,-0.7
2023-12-20T11:18:32.779Z,-0.7
2023-12-20T11:19:32.831Z,-0.7
2023-12-20T11:20:32.727Z,-0.7
2023-12-20T11:21:32.777Z,-0.7
2023-12-20T11:22:33.262Z,-0.7
2023-12-20T11:23:32.731Z,-0.7
2023-12-20T11:24:32.771Z,-0.7
2023-12-20T11:25:32.824Z,-0.7
2023-12-20T11:26:32.746Z,-0.7
2023-12-20T11:27:32.799Z,-0.7
2023-12-20T11:28:32.786Z,-0.7
2023-12-20T11:29:32.729Z,-0.7
2023-12-20T11:30:32.765Z,-0.7
2023-12-20T11:31:32.828Z,-0.7
2023-12-20T11:32:32.767Z,-0.7
2023-12-20T11:33:32.942Z,-0.7
2023-12-20T11:34:32.885Z,-0.7
2023-12-20T11:35:32.773Z,-0.7
2023-12-20T11:36:32.794Z,-0.7
2023-12-20T11:37:32.886Z,-0.7
2023-12-20T11:38:32.733Z,-0.7
2023-12-20T11:39:32.773Z,-0.7
2023-12-20T11:40:32.815Z,-0.7
2023-12-20T11:41:32.783Z,-0.7
2023-12-20T11:42:32.808Z,-0.7
2023-12-20T11:43:32.885Z,-0.7
2023-12-20T11:44:32.769Z,-0.7
2023-12-20T11:45:32.746Z,-0.7
2023-12-20T11:46:32.890Z,-0.7
2023-12-20T11:47:32.775Z,-0.1
2023-12-20T11:48:32.760Z,-0.1
2023-12-20T11:49:32.943Z,-0.1
2023-12-20T11:50:32.930Z,-0.1
2023-12-20T11:51:32.758Z,-0.1
2023-12-20T11:52:32.808Z,-0.1
2023-12-20T11:53:32.810Z,-0.1
2023-12-20T11:54:32.793Z,-0.1
2023-12-20T11:55:32.830Z,-0.1
2023-12-20T11:56:32.775Z,-0.1
2023-12-20T11:57:32.744Z,0.4
2023-12-20T11:58:32.779Z,0.4
2023-12-20T11:59:32.775Z,0.4
2023-12-20T12:00:32.760Z,0.4
2023-12-20T12:01:32.927Z,0.4
2023-12-20T12:02:32.766Z,0.4
2023-12-20T12:03:32.783Z,0.4
2023-12-20T12:04:32.841Z,0.9
2023-12-20T12:05:32.899Z,0.9
2023-12-20T12:06:32.804Z,0.9
2023-12-20T12:07:32.850Z,0.9
2023-12-20T12:08:32.754Z,1.4
2023-12-20T12:09:32.776Z,1.4
2023-12-20T12:10:32.915Z,1.4
2023-12-20T12:11:32.759Z,1.4
2023-12-20T12:12:32.792Z,1.4
2023-12-20T12:13:33.517Z,1.4
2023-12-20T12:14:32.762Z,1.6
2023-12-20T12:15:32.784Z,1.6
2023-12-20T12:16:32.912Z,1.6
2023-12-20T12:17:34.720Z,1.6
2023-12-20T12:18:32.828Z,1.6
2023-12-20T12:19:32.884Z,1.6
2023-12-20T12:20:33.737Z,1.6
2023-12-20T12:21:33.916Z,1.6
2023-12-20T12:22:32.826Z,1.6
2023-12-20T12:23:32.758Z,1.6
2023-12-20T12:24:32.795Z,1.6
2023-12-20T12:25:33.241Z,1.9
2023-12-20T12:26:32.776Z,1.9
2023-12-20T12:27:32.748Z,1.9
2023-12-20T12:28:32.912Z,1.9
2023-12-20T12:29:32.760Z,1.9
2023-12-20T12:30:38.510Z,1.9
2023-12-20T12:31:32.851Z,1.9
2023-12-20T12:32:32.946Z,1.9
2023-12-20T12:33:32.878Z,1.9
2023-12-20T12:34:32.868Z,1.9
2023-12-20T12:35:32.773Z,1.9
2023-12-20T12:36:32.790Z,1.9
2023-12-20T12:37:32.853Z,1.9
2023-12-20T12:38:32.836Z,1.9
2023-12-20T12:39:32.818Z,1.9
2023-12-20T12:40:32.782Z,1.9
2023-12-20T12:41:32.818Z,1.9
2023-12-20T12:42:32.833Z,1.9
2023-12-20T12:43:35.201Z,1.9
2023-12-20T12:44:32.809Z,2.3
2023-12-20T12:45:32.771Z,2.3
2023-12-20T12:46:32.846Z,2.3
2023-12-20T12:47:32.860Z,2.3
2023-12-20T12:48:33.012Z,2.3
2023-12-20T12:49:32.868Z,2.3
2023-12-20T12:50:32.897Z,2.3
2023-12-20T12:51:32.816Z,2.3
2023-12-20T12:52:32.883Z,2.3
2023-12-20T12:53:32.801Z,2.3
2023-12-20T12:54:32.778Z,2.3
2023-12-20T12:55:33.088Z,2.3
2023-12-20T12:56:32.838Z,2.3
2023-12-20T12:57:32.797Z,2.3
2023-12-20T12:58:32.851Z,2.3
2023-12-20T12:59:32.796Z,2.3
2023-12-20T13:00:32.822Z,2.3
2023-12-20T13:01:32.920Z,2.3
2023-12-20T13:02:32.807Z,2.3
2023-12-20T13:03:32.841Z,2.3
2023-12-20T13:04:32.822Z,2.3
2023-12-20T13:05:35.582Z,2.3
2023-12-20T13:06:32.806Z,2.3
2023-12-20T13:07:32.872Z,2.3
2023-12-20T13:08:32.785Z,2.3
2023-12-20T13:09:32.847Z,2.3
2023-12-20T13:10:33.028Z,2.3
2023-12-20T13:11:32.839Z,2.7
2023-12-20T13:12:32.792Z,2.7
2023-12-20T13:13:32.870Z,2.7
2023-12-20T13:14:32.792Z,2.7
2023-12-20T13:15:32.782Z,2.8
2023-12-20T13:16:32.843Z,2.8
2023-12-20T13:17:33.324Z,2.8
2023-12-20T13:18:32.864Z,2.8
2023-12-20T13:19:32.974Z,2.8
2023-12-20T13:20:32.847Z,2.8
2023-12-20T13:21:32.802Z,2.8
2023-12-20T13:22:33.024Z,2.8
2023-12-20T13:23:32.804Z,2.8
2023-12-20T13:24:32.853Z,2.8
2023-12-20T13:25:32.876Z,2.8
2023-12-20T13:26:32.840Z,2.8
2023-12-20T13:27:32.804Z,2.8
2023-12-20T13:28:32.890Z,2.8